createdAt,value
2017-01-29T00:00:16.617Z,929.51
2017-01-29T00:00:37.002Z,929.55
2017-01-29T00:00:57.437Z,929.55
2017-01-29T00:01:17.869Z,929.54
2017-01-29T00:01:38.267Z,929.53
2017-01-29T00:01:58.686Z,929.55
2017-01-29T00:02:19.099Z,929.56
2017-01-29T00:02:39.472Z,929.51
2017-01-29T00:02:59.865Z,929.56
2017-01-29T00:03:20.227Z,929.58
2017-01-29T00:03:40.618Z,929.6
2017-01-29T00:04:01.050Z,929.55
2017-01-29T00:04:20.799Z,929.51
2017-01-29T00:04:41.210Z,929.57
2017-01-29T00:05:01.634Z,929.61
2017-01-29T00:05:22.023Z,929.61
2017-01-29T00:05:42.444Z,929.63
2017-01-29T00:06:02.881Z,929.63
2017-01-29T00:06:22.605Z,929.67
2017-01-29T00:06:43.019Z,929.64
2017-01-29T00:07:03.398Z,929.66
2017-01-29T00:07:23.171Z,929.64
2017-01-29T00:07:43.578Z,929.63
2017-01-29T00:08:03.993Z,929.66
2017-01-29T00:08:23.777Z,929.7
2017-01-29T00:08:55.266Z,929.75
2017-01-29T00:09:15.017Z,929.69
2017-01-29T00:10:03.251Z,929.7
2017-01-29T00:10:23.003Z,929.74
2017-01-29T00:10:43.388Z,929.68
2017-01-29T00:11:03.794Z,929.68
2017-01-29T00:11:22.921Z,929.7
2017-01-29T00:11:43.355Z,929.71
2017-01-29T00:12:03.754Z,929.72
2017-01-29T00:12:23.554Z,929.67
2017-01-29T00:12:43.332Z,929.69
2017-01-29T00:13:03.775Z,929.72
2017-01-29T00:13:24.197Z,929.74
2017-01-29T00:13:44.609Z,929.68
2017-01-29T00:14:05.008Z,929.69
2017-01-29T00:14:24.168Z,929.72
2017-01-29T00:14:44.570Z,929.67
2017-01-29T00:15:05.041Z,929.73
2017-01-29T00:15:24.811Z,929.7
2017-01-29T00:15:44.558Z,929.66
2017-01-29T00:16:04.986Z,929.73
2017-01-29T00:16:25.371Z,929.71
2017-01-29T00:16:45.779Z,929.63
2017-01-29T00:17:06.200Z,929.7
2017-01-29T00:17:26.632Z,929.69
2017-01-29T00:17:47.016Z,929.69
2017-01-29T00:18:07.429Z,929.69
2017-01-29T00:18:27.831Z,929.68
2017-01-29T00:18:48.272Z,929.64
2017-01-29T00:19:08.676Z,929.64
2017-01-29T00:19:28.413Z,929.66
2017-01-29T00:19:49.391Z,929.67
2017-01-29T00:20:09.776Z,929.62
2017-01-29T00:20:30.178Z,929.66
2017-01-29T00:20:50.605Z,929.67
2017-01-29T00:21:10.355Z,929.67
2017-01-29T00:21:30.108Z,929.65
2017-01-29T00:21:50.497Z,929.68
2017-01-29T00:22:10.917Z,929.66
2017-01-29T00:22:31.296Z,929.72
2017-01-29T00:22:51.690Z,929.72
2017-01-29T00:23:12.115Z,929.73
2017-01-29T00:23:32.488Z,929.7
2017-01-29T00:23:52.932Z,929.69
2017-01-29T00:24:13.351Z,929.66
2017-01-29T00:24:33.111Z,929.7
2017-01-29T00:24:53.516Z,929.73
2017-01-29T00:25:13.101Z,929.72
2017-01-29T00:25:32.874Z,929.68
2017-01-29T00:25:53.318Z,929.68
2017-01-29T00:26:13.076Z,929.69
2017-01-29T00:26:32.849Z,929.68
2017-01-29T00:26:52.609Z,929.65
2017-01-29T00:27:13.026Z,929.67
2017-01-29T00:27:32.137Z,929.68
2017-01-29T00:27:51.931Z,929.7
2017-01-29T00:28:12.311Z,929.71
2017-01-29T00:28:32.705Z,929.65
2017-01-29T00:28:53.142Z,929.68
2017-01-29T00:29:13.514Z,929.68
2017-01-29T00:29:33.301Z,929.67
2017-01-29T00:29:53.706Z,929.68
2017-01-29T00:30:13.454Z,929.66
2017-01-29T00:30:33.874Z,929.66
2017-01-29T00:30:54.272Z,929.67
2017-01-29T00:31:14.023Z,929.67
2017-01-29T00:31:34.476Z,929.69
2017-01-29T00:31:54.910Z,929.72
2017-01-29T00:32:15.351Z,929.67
2017-01-29T00:32:35.731Z,929.66
2017-01-29T00:32:56.132Z,929.68
2017-01-29T00:33:16.563Z,929.69
2017-01-29T00:33:36.970Z,929.69
2017-01-29T00:34:24.212Z,929.68
2017-01-29T00:34:44.598Z,929.67
2017-01-29T00:35:04.349Z,929.7
2017-01-29T00:35:24.777Z,929.67
2017-01-29T00:35:45.184Z,929.66
2017-01-29T00:36:05.588Z,929.69
2017-01-29T00:36:25.974Z,929.69
2017-01-29T00:36:46.369Z,929.67
2017-01-29T00:37:06.770Z,929.64
2017-01-29T00:37:26.498Z,929.68
2017-01-29T00:37:46.904Z,929.67
2017-01-29T00:38:07.283Z,929.65
2017-01-29T00:38:27.677Z,929.66
2017-01-29T00:38:48.044Z,929.65
2017-01-29T00:39:08.410Z,929.63
2017-01-29T00:39:28.183Z,929.61
2017-01-29T00:39:48.586Z,929.65
2017-01-29T00:40:09.030Z,929.63
2017-01-29T00:40:29.410Z,929.61
2017-01-29T00:40:49.161Z,929.63
2017-01-29T00:41:09.568Z,929.62
2017-01-29T00:41:29.957Z,929.59
2017-01-29T00:41:50.380Z,929.6
2017-01-29T00:42:10.801Z,929.63
2017-01-29T00:42:30.546Z,929.61
2017-01-29T00:42:51.010Z,929.6
2017-01-29T00:43:11.414Z,929.62
2017-01-29T00:43:31.851Z,929.59
2017-01-29T00:43:51.592Z,929.54
2017-01-29T00:44:11.985Z,929.57
2017-01-29T00:44:31.773Z,929.57
2017-01-29T00:44:52.187Z,929.6
2017-01-29T00:45:12.858Z,929.59
2017-01-29T00:45:33.274Z,929.59
2017-01-29T00:45:53.675Z,929.49
2017-01-29T00:46:14.065Z,929.56
2017-01-29T00:46:34.490Z,929.51
2017-01-29T00:46:54.902Z,929.56
2017-01-29T00:47:14.671Z,929.56
2017-01-29T00:47:35.100Z,929.54
2017-01-29T00:47:55.493Z,929.53
2017-01-29T00:48:15.231Z,929.53
2017-01-29T00:48:35.615Z,929.52
2017-01-29T00:48:55.374Z,929.5
2017-01-29T00:49:15.765Z,929.5
2017-01-29T00:49:36.150Z,929.52
2017-01-29T00:49:55.890Z,929.51
2017-01-29T00:50:15.661Z,929.5
2017-01-29T00:50:36.056Z,929.55
2017-01-29T00:50:56.475Z,929.56
2017-01-29T00:51:16.228Z,929.53
2017-01-29T00:51:36.598Z,929.57
2017-01-29T00:51:57.013Z,929.53
2017-01-29T00:52:17.401Z,929.5
2017-01-29T00:52:37.823Z,929.5
2017-01-29T00:52:58.208Z,929.51
2017-01-29T00:53:17.954Z,929.54
2017-01-29T00:53:37.721Z,929.51
2017-01-29T00:53:56.854Z,929.55
2017-01-29T00:54:17.272Z,929.48
2017-01-29T00:54:37.679Z,929.51
2017-01-29T00:54:57.465Z,929.45
2017-01-29T00:55:17.884Z,929.53
2017-01-29T00:55:38.278Z,929.51
2017-01-29T00:55:58.662Z,929.48
2017-01-29T00:56:19.046Z,929.5
2017-01-29T00:56:39.429Z,929.53
2017-01-29T00:56:59.832Z,929.49
2017-01-29T00:57:20.228Z,929.51
2017-01-29T00:57:40.642Z,929.5
2017-01-29T00:58:01.038Z,929.46
2017-01-29T00:58:21.490Z,929.48
2017-01-29T00:58:41.954Z,929.46
2017-01-29T00:59:01.687Z,929.53
2017-01-29T00:59:22.075Z,929.51
2017-01-29T00:59:42.450Z,929.51
2017-01-29T01:00:02.813Z,929.47
2017-01-29T01:00:22.560Z,929.56
2017-01-29T01:00:42.956Z,929.53
2017-01-29T01:01:03.355Z,929.55
2017-01-29T01:01:23.739Z,929.52
2017-01-29T01:01:44.159Z,929.53
2017-01-29T01:02:04.593Z,929.51
2017-01-29T01:02:23.718Z,929.54
2017-01-29T01:02:43.486Z,929.51
2017-01-29T01:03:03.268Z,929.52
2017-01-29T01:03:23.670Z,929.54
2017-01-29T01:03:44.060Z,929.53
2017-01-29T01:04:03.843Z,929.52
2017-01-29T01:04:23.617Z,929.49
2017-01-29T01:04:44.001Z,929.52
2017-01-29T01:05:04.626Z,929.5
2017-01-29T01:05:24.375Z,929.5
2017-01-29T01:05:44.801Z,929.48
2017-01-29T01:06:04.571Z,929.52
2017-01-29T01:06:24.994Z,929.51
2017-01-29T01:06:45.370Z,929.53
2017-01-29T01:07:05.788Z,929.51
2017-01-29T01:07:25.552Z,929.51
2017-01-29T01:07:45.995Z,929.51
2017-01-29T01:08:06.413Z,929.56
2017-01-29T01:08:26.200Z,929.57
2017-01-29T01:08:46.593Z,929.53
2017-01-29T01:09:06.978Z,929.56
2017-01-29T01:09:26.709Z,929.56
2017-01-29T01:09:47.120Z,929.58
2017-01-29T01:10:07.514Z,929.57
2017-01-29T01:10:27.284Z,929.6
2017-01-29T01:10:47.684Z,929.56
2017-01-29T01:11:08.097Z,929.57
2017-01-29T01:11:28.510Z,929.57
2017-01-29T01:11:48.905Z,929.6
2017-01-29T01:12:08.646Z,929.56
2017-01-29T01:12:29.043Z,929.55
2017-01-29T01:12:49.469Z,929.54
2017-01-29T01:13:09.883Z,929.57
2017-01-29T01:13:30.276Z,929.57
2017-01-29T01:13:50.693Z,929.58
2017-01-29T01:14:11.068Z,929.61
2017-01-29T01:14:31.513Z,929.61
2017-01-29T01:14:51.941Z,929.64
2017-01-29T01:15:12.804Z,929.59
2017-01-29T01:15:32.571Z,929.62
2017-01-29T01:15:52.988Z,929.63
2017-01-29T01:16:13.418Z,929.6
2017-01-29T01:16:33.822Z,929.63
2017-01-29T01:16:54.229Z,929.65
2017-01-29T01:17:14.618Z,929.65
2017-01-29T01:17:35.032Z,929.63
2017-01-29T01:17:55.451Z,929.63
2017-01-29T01:18:15.181Z,929.65
2017-01-29T01:18:34.973Z,929.65
2017-01-29T01:18:55.379Z,929.64
2017-01-29T01:19:15.801Z,929.65
2017-01-29T01:19:36.220Z,929.66
2017-01-29T01:19:56.668Z,929.65
2017-01-29T01:20:15.807Z,929.64
2017-01-29T01:20:36.190Z,929.7
2017-01-29T01:20:56.595Z,929.68
2017-01-29T01:21:17.034Z,929.66
2017-01-29T01:21:37.443Z,929.65
2017-01-29T01:21:57.816Z,929.64
2017-01-29T01:22:17.593Z,929.7
2017-01-29T01:22:38.019Z,929.72
2017-01-29T01:22:58.395Z,929.71
2017-01-29T01:23:18.810Z,929.7
2017-01-29T01:23:39.200Z,929.67
2017-01-29T01:23:59.571Z,929.68
2017-01-29T01:24:19.945Z,929.72
2017-01-29T01:24:39.744Z,929.71
2017-01-29T01:25:00.174Z,929.72
2017-01-29T01:25:19.959Z,929.73
2017-01-29T01:25:40.382Z,929.69
2017-01-29T01:26:00.798Z,929.72
2017-01-29T01:26:20.576Z,929.76
2017-01-29T01:26:40.979Z,929.73
2017-01-29T01:27:01.381Z,929.7
2017-01-29T01:27:20.476Z,929.75
2017-01-29T01:27:40.882Z,929.74
2017-01-29T01:28:01.342Z,929.76
2017-01-29T01:28:21.088Z,929.74
2017-01-29T01:28:41.544Z,929.72
2017-01-29T01:29:01.893Z,929.72
2017-01-29T01:29:21.621Z,929.74
2017-01-29T01:29:42.007Z,929.79
2017-01-29T01:30:01.775Z,929.75
2017-01-29T01:30:21.536Z,929.74
2017-01-29T01:30:41.949Z,929.76
2017-01-29T01:31:01.676Z,929.77
2017-01-29T01:31:21.425Z,929.77
2017-01-29T01:31:41.812Z,929.76
2017-01-29T01:32:00.987Z,929.76
2017-01-29T01:32:21.371Z,929.76
2017-01-29T01:32:41.785Z,929.72
2017-01-29T01:33:01.554Z,929.74
2017-01-29T01:33:21.957Z,929.73
2017-01-29T01:33:42.382Z,929.73
2017-01-29T01:34:02.819Z,929.74
2017-01-29T01:34:23.219Z,929.75
2017-01-29T01:34:43.621Z,929.76
2017-01-29T01:35:04.024Z,929.76
2017-01-29T01:35:23.750Z,929.74
2017-01-29T01:35:44.147Z,929.74
2017-01-29T01:36:04.596Z,929.74
2017-01-29T01:36:24.352Z,929.76
2017-01-29T01:36:44.756Z,929.75
2017-01-29T01:37:05.194Z,929.74
2017-01-29T01:37:24.989Z,929.78
2017-01-29T01:37:45.407Z,929.75
2017-01-29T01:38:05.150Z,929.72
2017-01-29T01:38:24.905Z,929.69
2017-01-29T01:38:45.321Z,929.74
2017-01-29T01:39:05.778Z,929.76
2017-01-29T01:39:25.507Z,929.72
2017-01-29T01:39:45.881Z,929.73
2017-01-29T01:40:06.624Z,929.73
2017-01-29T01:40:27.014Z,929.72
2017-01-29T01:40:47.454Z,929.72
2017-01-29T01:41:07.869Z,929.73
2017-01-29T01:41:28.241Z,929.75
2017-01-29T01:41:48.651Z,929.73
2017-01-29T01:42:09.096Z,929.75
2017-01-29T01:42:29.507Z,929.74
2017-01-29T01:42:49.928Z,929.69
2017-01-29T01:43:10.306Z,929.71
2017-01-29T01:43:30.732Z,929.7
2017-01-29T01:43:50.484Z,929.72
2017-01-29T01:44:10.852Z,929.68
2017-01-29T01:44:31.265Z,929.69
2017-01-29T01:44:51.019Z,929.7
2017-01-29T01:45:11.428Z,929.69
2017-01-29T01:45:31.826Z,929.7
2017-01-29T01:45:52.267Z,929.67
2017-01-29T01:46:12.646Z,929.69
2017-01-29T01:46:33.089Z,929.65
2017-01-29T01:46:53.546Z,929.67
2017-01-29T01:47:13.937Z,929.7
2017-01-29T01:47:34.347Z,929.67
2017-01-29T01:48:28.272Z,929.69
2017-01-29T01:48:48.654Z,929.67
2017-01-29T01:49:09.081Z,929.67
2017-01-29T01:49:29.444Z,929.73
2017-01-29T01:49:49.848Z,929.68
2017-01-29T01:50:09.096Z,929.71
2017-01-29T01:50:28.853Z,929.71
2017-01-29T01:50:49.236Z,929.72
2017-01-29T01:51:08.356Z,929.72
2017-01-29T01:51:28.763Z,929.73
2017-01-29T01:51:49.165Z,929.72
2017-01-29T01:52:09.616Z,929.73
2017-01-29T01:52:30.015Z,929.74
2017-01-29T01:52:50.474Z,929.76
2017-01-29T01:53:10.868Z,929.77
2017-01-29T01:53:30.643Z,929.8
2017-01-29T01:53:51.031Z,929.79
2017-01-29T01:54:10.770Z,929.77
2017-01-29T01:54:30.521Z,929.78
2017-01-29T01:54:50.926Z,929.79
2017-01-29T01:55:11.309Z,929.8
2017-01-29T01:55:31.710Z,929.81
2017-01-29T01:55:51.501Z,929.79
2017-01-29T01:56:11.892Z,929.78
2017-01-29T01:56:32.296Z,929.77
2017-01-29T01:56:52.683Z,929.76
2017-01-29T01:57:13.109Z,929.8
2017-01-29T01:57:32.854Z,929.75
2017-01-29T01:57:52.599Z,929.77
2017-01-29T01:58:12.993Z,929.79
2017-01-29T01:58:33.416Z,929.83
2017-01-29T01:58:53.843Z,929.82
2017-01-29T01:59:14.245Z,929.82
2017-01-29T01:59:34.622Z,929.79
2017-01-29T01:59:55.039Z,929.81
2017-01-29T02:00:15.456Z,929.8
2017-01-29T02:00:35.860Z,929.82
2017-01-29T02:00:55.611Z,929.8
2017-01-29T02:01:14.720Z,929.84
2017-01-29T02:01:35.137Z,929.83
2017-01-29T02:01:55.558Z,929.79
2017-01-29T02:02:15.982Z,929.81
2017-01-29T02:02:36.397Z,929.79
2017-01-29T02:02:56.825Z,929.79
2017-01-29T02:03:17.241Z,929.77
2017-01-29T02:03:37.623Z,929.79
2017-01-29T02:03:58.037Z,929.78
2017-01-29T02:04:17.806Z,929.76
2017-01-29T02:04:38.230Z,929.76
2017-01-29T02:04:58.634Z,929.77
2017-01-29T02:05:19.201Z,929.78
2017-01-29T02:05:39.582Z,929.77
2017-01-29T02:06:00.001Z,929.73
2017-01-29T02:06:20.400Z,929.76
2017-01-29T02:06:40.830Z,929.8
2017-01-29T02:07:01.279Z,929.78
2017-01-29T02:07:21.689Z,929.79
2017-01-29T02:07:42.093Z,929.78
2017-01-29T02:08:01.861Z,929.77
2017-01-29T02:08:22.280Z,929.77
2017-01-29T02:08:42.683Z,929.78
2017-01-29T02:09:02.460Z,929.75
2017-01-29T02:09:22.860Z,929.8
2017-01-29T02:09:43.257Z,929.78
2017-01-29T02:10:03.677Z,929.77
2017-01-29T02:10:24.073Z,929.77
2017-01-29T02:10:44.542Z,929.79
2017-01-29T02:11:04.285Z,929.77
2017-01-29T02:11:24.045Z,929.74
2017-01-29T02:11:44.421Z,929.79
2017-01-29T02:12:04.157Z,929.81
2017-01-29T02:12:23.912Z,929.79
2017-01-29T02:12:44.317Z,929.74
2017-01-29T02:13:04.713Z,929.81
2017-01-29T02:13:24.454Z,929.8
2017-01-29T02:13:44.874Z,929.81
2017-01-29T02:14:05.250Z,929.82
2017-01-29T02:14:24.996Z,929.8
2017-01-29T02:14:45.402Z,929.82
2017-01-29T02:15:05.799Z,929.79
2017-01-29T02:15:26.197Z,929.81
2017-01-29T02:15:46.602Z,929.8
2017-01-29T02:16:06.988Z,929.82
2017-01-29T02:16:26.723Z,929.84
2017-01-29T02:16:47.087Z,929.82
2017-01-29T02:17:07.530Z,929.81
2017-01-29T02:17:27.927Z,929.79
2017-01-29T02:17:48.331Z,929.82
2017-01-29T02:18:07.427Z,929.83
2017-01-29T02:18:27.842Z,929.83
2017-01-29T02:18:47.591Z,929.83
2017-01-29T02:19:07.979Z,929.82
2017-01-29T02:19:28.370Z,929.8
2017-01-29T02:19:48.787Z,929.78
2017-01-29T02:20:09.213Z,929.77
2017-01-29T02:20:28.986Z,929.77
2017-01-29T02:20:49.392Z,929.84
2017-01-29T02:21:09.794Z,929.82
2017-01-29T02:21:28.930Z,929.82
2017-01-29T02:21:49.337Z,929.81
2017-01-29T02:22:09.768Z,929.83
2017-01-29T02:22:29.499Z,929.78
2017-01-29T02:22:49.880Z,929.82
2017-01-29T02:23:10.282Z,929.79
2017-01-29T02:23:30.706Z,929.84
2017-01-29T02:23:51.128Z,929.8
2017-01-29T02:24:11.581Z,929.79
2017-01-29T02:24:31.985Z,929.86
2017-01-29T02:24:52.352Z,929.87
2017-01-29T02:25:12.145Z,929.79
2017-01-29T02:25:31.916Z,929.82
2017-01-29T02:25:51.668Z,929.79
2017-01-29T02:26:12.299Z,929.8
2017-01-29T02:26:32.683Z,929.79
2017-01-29T02:26:53.083Z,929.79
2017-01-29T02:27:13.546Z,929.79
2017-01-29T02:27:33.988Z,929.79
2017-01-29T02:27:54.365Z,929.76
2017-01-29T02:28:14.764Z,929.79
2017-01-29T02:28:35.179Z,929.83
2017-01-29T02:28:54.939Z,929.81
2017-01-29T02:29:15.363Z,929.79
2017-01-29T02:29:35.740Z,929.77
2017-01-29T02:29:56.119Z,929.78
2017-01-29T02:30:16.508Z,929.76
2017-01-29T02:30:36.925Z,929.78
2017-01-29T02:30:57.376Z,929.77
2017-01-29T02:31:17.762Z,929.8
2017-01-29T02:31:38.196Z,929.77
2017-01-29T02:31:58.565Z,929.77
2017-01-29T02:32:18.292Z,929.79
2017-01-29T02:32:38.717Z,929.79
2017-01-29T02:32:59.119Z,929.79
2017-01-29T02:33:19.530Z,929.76
2017-01-29T02:33:39.903Z,929.78
2017-01-29T02:34:00.275Z,929.78
2017-01-29T02:34:20.039Z,929.77
2017-01-29T02:34:40.463Z,929.75
2017-01-29T02:35:00.886Z,929.79
2017-01-29T02:35:21.284Z,929.74
2017-01-29T02:35:41.706Z,929.8
2017-01-29T02:36:02.115Z,929.77
2017-01-29T02:36:22.494Z,929.79
2017-01-29T02:36:42.235Z,929.77
2017-01-29T02:37:01.989Z,929.8
2017-01-29T02:37:22.385Z,929.79
2017-01-29T02:37:42.837Z,929.77
2017-01-29T02:38:03.229Z,929.77
2017-01-29T02:38:23.007Z,929.75
2017-01-29T02:38:43.401Z,929.73
2017-01-29T02:39:03.840Z,929.76
2017-01-29T02:39:24.256Z,929.77
2017-01-29T02:39:44.673Z,929.76
2017-01-29T02:40:05.180Z,929.78
2017-01-29T02:40:25.540Z,929.75
2017-01-29T02:40:45.926Z,929.71
2017-01-29T02:41:06.298Z,929.77
2017-01-29T02:41:26.688Z,929.75
2017-01-29T02:41:47.073Z,929.75
2017-01-29T02:42:07.463Z,929.74
2017-01-29T02:42:27.816Z,929.71
2017-01-29T02:42:48.219Z,929.72
2017-01-29T02:43:08.634Z,929.68
2017-01-29T02:43:28.420Z,929.69
2017-01-29T02:43:48.195Z,929.69
2017-01-29T02:44:08.607Z,929.72
2017-01-29T02:44:29.009Z,929.71
2017-01-29T02:44:48.743Z,929.68
2017-01-29T02:45:09.180Z,929.7
2017-01-29T02:45:29.624Z,929.69
2017-01-29T02:45:50.040Z,929.71
2017-01-29T02:46:09.157Z,929.73
2017-01-29T02:46:29.527Z,929.71
2017-01-29T02:46:49.919Z,929.7
2017-01-29T02:47:10.329Z,929.7
2017-01-29T02:47:30.705Z,929.68
2017-01-29T02:47:51.100Z,929.68
2017-01-29T02:48:11.501Z,929.74
2017-01-29T02:48:31.262Z,929.69
2017-01-29T02:48:51.679Z,929.71
2017-01-29T02:49:11.452Z,929.72
2017-01-29T02:49:31.842Z,929.76
2017-01-29T02:49:51.603Z,929.77
2017-01-29T02:50:11.973Z,929.75
2017-01-29T02:50:32.375Z,929.8
2017-01-29T02:50:52.778Z,929.78
2017-01-29T02:51:13.174Z,929.76
2017-01-29T02:51:32.893Z,929.79
2017-01-29T02:51:53.316Z,929.79
2017-01-29T02:52:13.088Z,929.81
2017-01-29T02:52:33.522Z,929.83
2017-01-29T02:52:53.266Z,929.81
2017-01-29T02:53:13.694Z,929.78
2017-01-29T02:53:33.464Z,929.77
2017-01-29T02:53:53.890Z,929.77
2017-01-29T02:54:14.320Z,929.76
2017-01-29T02:54:34.741Z,929.79
2017-01-29T02:54:55.142Z,929.78
2017-01-29T02:55:15.550Z,929.78
2017-01-29T02:55:35.928Z,929.77
2017-01-29T02:55:56.342Z,929.75
2017-01-29T02:56:16.118Z,929.74
2017-01-29T02:56:36.511Z,929.75
2017-01-29T02:56:56.930Z,929.75
2017-01-29T02:57:16.711Z,929.74
2017-01-29T02:57:37.101Z,929.72
2017-01-29T02:57:57.471Z,929.73
2017-01-29T02:58:17.246Z,929.72
2017-01-29T02:58:37.635Z,929.74
2017-01-29T02:58:58.070Z,929.69
2017-01-29T02:59:17.864Z,929.7
2017-01-29T02:59:38.268Z,929.69
2017-01-29T02:59:58.044Z,929.7
2017-01-29T03:00:17.795Z,929.69
2017-01-29T03:00:40.336Z,929.67
2017-01-29T03:01:00.725Z,929.67
2017-01-29T03:01:21.161Z,929.66
2017-01-29T03:01:41.560Z,929.68
2017-01-29T03:02:01.957Z,929.66
2017-01-29T03:02:22.330Z,929.65
2017-01-29T03:02:42.719Z,929.65
2017-01-29T03:03:03.108Z,929.66
2017-01-29T03:03:23.522Z,929.67
2017-01-29T03:03:43.945Z,929.64
2017-01-29T03:04:04.375Z,929.63
2017-01-29T03:04:24.764Z,929.63
2017-01-29T03:04:45.215Z,929.65
2017-01-29T03:05:05.659Z,929.64
2017-01-29T03:05:26.070Z,929.61
2017-01-29T03:05:46.437Z,929.61
2017-01-29T03:06:06.841Z,929.62
2017-01-29T03:06:26.612Z,929.64
2017-01-29T03:06:47.028Z,929.59
2017-01-29T03:07:07.434Z,929.62
2017-01-29T03:07:26.548Z,929.62
2017-01-29T03:07:46.979Z,929.6
2017-01-29T03:08:07.411Z,929.63
2017-01-29T03:08:27.794Z,929.63
2017-01-29T03:08:48.223Z,929.63
2017-01-29T03:09:08.617Z,929.61
2017-01-29T03:09:29.017Z,929.63
2017-01-29T03:09:49.410Z,929.63
2017-01-29T03:10:09.177Z,929.6
2017-01-29T03:10:28.915Z,929.6
2017-01-29T03:10:49.336Z,929.59
2017-01-29T03:11:09.758Z,929.58
2017-01-29T03:11:30.160Z,929.58
2017-01-29T03:11:50.560Z,929.57
2017-01-29T03:12:10.970Z,929.56
2017-01-29T03:12:31.371Z,929.52
2017-01-29T03:12:51.806Z,929.54
2017-01-29T03:13:12.190Z,929.52
2017-01-29T03:13:32.589Z,929.5
2017-01-29T03:13:52.966Z,929.51
2017-01-29T03:14:13.368Z,929.52
2017-01-29T03:14:33.137Z,929.49
2017-01-29T03:14:53.654Z,929.51
2017-01-29T03:15:14.085Z,929.48
2017-01-29T03:15:34.449Z,929.45
2017-01-29T03:15:54.875Z,929.44
2017-01-29T03:16:14.629Z,929.44
2017-01-29T03:16:35.052Z,929.46
2017-01-29T03:16:55.424Z,929.42
2017-01-29T03:17:15.819Z,929.4
2017-01-29T03:17:36.229Z,929.39
2017-01-29T03:17:56.665Z,929.39
2017-01-29T03:18:16.418Z,929.38
2017-01-29T03:18:36.796Z,929.37
2017-01-29T03:18:57.181Z,929.32
2017-01-29T03:19:17.602Z,929.31
2017-01-29T03:19:38.005Z,929.32
2017-01-29T03:19:58.405Z,929.3
2017-01-29T03:20:18.830Z,929.33
2017-01-29T03:20:39.223Z,929.29
2017-01-29T03:20:59.645Z,929.28
2017-01-29T03:21:20.057Z,929.29
2017-01-29T03:21:40.466Z,929.3
2017-01-29T03:22:00.852Z,929.32
2017-01-29T03:22:20.583Z,929.29
2017-01-29T03:22:41.000Z,929.29
2017-01-29T03:23:01.399Z,929.27
2017-01-29T03:23:21.778Z,929.31
2017-01-29T03:23:42.201Z,929.32
2017-01-29T03:24:02.619Z,929.34
2017-01-29T03:24:23.019Z,929.31
2017-01-29T03:24:43.403Z,929.37
2017-01-29T03:25:03.809Z,929.35
2017-01-29T03:25:24.197Z,929.4
2017-01-29T03:25:44.605Z,929.42
2017-01-29T03:26:04.358Z,929.39
2017-01-29T03:26:24.079Z,929.41
2017-01-29T03:26:44.531Z,929.43
2017-01-29T03:27:04.883Z,929.36
2017-01-29T03:27:23.987Z,929.39
2017-01-29T03:27:44.409Z,929.4
2017-01-29T03:28:04.801Z,929.41
2017-01-29T03:28:25.265Z,929.42
2017-01-29T03:28:51.802Z,929.36
2017-01-29T03:29:12.173Z,929.38
2017-01-29T03:29:31.282Z,929.38
2017-01-29T03:29:51.703Z,929.4
2017-01-29T03:30:12.142Z,929.43
2017-01-29T03:30:31.235Z,929.39
2017-01-29T03:30:51.604Z,929.37
2017-01-29T03:31:11.386Z,929.39
2017-01-29T03:31:31.166Z,929.38
2017-01-29T03:31:51.576Z,929.39
2017-01-29T03:32:11.963Z,929.37
2017-01-29T03:32:32.377Z,929.4
2017-01-29T03:32:52.757Z,929.35
2017-01-29T03:33:13.170Z,929.35
2017-01-29T03:33:33.556Z,929.32
2017-01-29T03:33:53.968Z,929.31
2017-01-29T03:34:14.378Z,929.34
2017-01-29T03:34:34.762Z,929.31
2017-01-29T03:34:55.172Z,929.31
2017-01-29T03:35:15.570Z,929.34
2017-01-29T03:35:35.948Z,929.34
2017-01-29T03:35:56.335Z,929.32
2017-01-29T03:36:16.711Z,929.31
2017-01-29T03:36:37.123Z,929.29
2017-01-29T03:36:57.513Z,929.31
2017-01-29T03:37:17.283Z,929.32
2017-01-29T03:37:37.700Z,929.33
2017-01-29T03:37:58.099Z,929.35
2017-01-29T03:38:17.850Z,929.34
2017-01-29T03:38:38.273Z,929.32
2017-01-29T03:38:58.724Z,929.29
2017-01-29T03:39:18.471Z,929.3
2017-01-29T03:39:38.876Z,929.3
2017-01-29T03:39:59.274Z,929.28
2017-01-29T03:40:19.044Z,929.27
2017-01-29T03:40:39.480Z,929.28
2017-01-29T03:40:59.857Z,929.28
2017-01-29T03:41:20.253Z,929.34
2017-01-29T03:41:39.990Z,929.33
2017-01-29T03:42:00.392Z,929.32
2017-01-29T03:42:20.155Z,929.31
2017-01-29T03:42:40.540Z,929.34
2017-01-29T03:43:00.970Z,929.31
2017-01-29T03:43:21.391Z,929.32
2017-01-29T03:43:41.793Z,929.31
2017-01-29T03:44:02.159Z,929.3
2017-01-29T03:44:21.260Z,929.29
2017-01-29T03:44:41.657Z,929.28
2017-01-29T03:45:01.427Z,929.29
2017-01-29T03:45:21.191Z,929.29
2017-01-29T03:45:41.605Z,929.3
2017-01-29T03:46:01.366Z,929.27
2017-01-29T03:46:21.132Z,929.29
2017-01-29T03:46:41.511Z,929.27
2017-01-29T03:47:01.888Z,929.29
2017-01-29T03:47:22.295Z,929.28
2017-01-29T03:47:42.029Z,929.25
2017-01-29T03:48:02.409Z,929.27
2017-01-29T03:48:22.779Z,929.27
2017-01-29T03:48:43.159Z,929.27
2017-01-29T03:49:03.528Z,929.26
2017-01-29T03:49:23.937Z,929.23
2017-01-29T03:49:44.318Z,929.27
2017-01-29T03:50:04.245Z,929.28
2017-01-29T03:50:24.650Z,929.29
2017-01-29T03:50:44.404Z,929.25
2017-01-29T03:51:04.822Z,929.26
2017-01-29T03:51:24.583Z,929.3
2017-01-29T03:51:44.999Z,929.3
2017-01-29T03:52:05.430Z,929.27
2017-01-29T03:52:25.195Z,929.26
2017-01-29T03:52:45.612Z,929.27
2017-01-29T03:53:05.973Z,929.25
2017-01-29T03:53:25.740Z,929.25
2017-01-29T03:53:46.135Z,929.23
2017-01-29T03:54:05.851Z,929.25
2017-01-29T03:54:25.604Z,929.24
2017-01-29T03:54:45.990Z,929.23
2017-01-29T03:55:07.918Z,929.26
2017-01-29T03:55:31.858Z,929.22
2017-01-29T03:55:52.270Z,929.23
2017-01-29T03:56:12.700Z,929.21
2017-01-29T03:56:32.458Z,929.2
2017-01-29T03:56:52.236Z,929.21
2017-01-29T03:57:12.677Z,929.21
2017-01-29T03:57:32.439Z,929.2
2017-01-29T03:57:52.862Z,929.19
2017-01-29T03:58:13.307Z,929.18
2017-01-29T03:58:33.685Z,929.22
2017-01-29T03:58:54.117Z,929.2
2017-01-29T03:59:13.861Z,929.17
2017-01-29T03:59:33.635Z,929.15
2017-01-29T03:59:53.388Z,929.15
2017-01-29T04:00:13.804Z,929.14
2017-01-29T04:00:34.190Z,929.17
2017-01-29T04:00:53.993Z,929.17
2017-01-29T04:01:14.360Z,929.13
2017-01-29T04:01:34.716Z,929.13
2017-01-29T04:01:55.128Z,929.12
2017-01-29T04:02:15.551Z,929.12
2017-01-29T04:02:35.276Z,929.11
2017-01-29T04:02:55.714Z,929.12
2017-01-29T04:03:15.502Z,929.07
2017-01-29T04:03:35.911Z,929.11
2017-01-29T04:03:56.304Z,929.08
2017-01-29T04:04:16.048Z,929.07
2017-01-29T04:04:36.500Z,929.05
2017-01-29T04:04:56.920Z,929.06
2017-01-29T04:05:17.328Z,929.08
2017-01-29T04:05:37.779Z,929.09
2017-01-29T04:05:58.191Z,929.05
2017-01-29T04:06:17.935Z,929.07
2017-01-29T04:06:38.310Z,929.09
2017-01-29T04:06:58.681Z,929.09
2017-01-29T04:07:18.457Z,929.1
2017-01-29T04:07:38.909Z,929.09
2017-01-29T04:07:59.333Z,929.09
2017-01-29T04:08:19.764Z,929.07
2017-01-29T04:08:40.165Z,929.1
2017-01-29T04:09:00.543Z,929.05
2017-01-29T04:09:20.952Z,929.07
2017-01-29T04:09:41.353Z,929.13
2017-01-29T04:10:01.231Z,929.11
2017-01-29T04:10:21.657Z,929.14
2017-01-29T04:10:42.050Z,929.14
2017-01-29T04:11:02.469Z,929.1
2017-01-29T04:11:22.272Z,929.14
2017-01-29T04:11:42.034Z,929.13
2017-01-29T04:12:02.520Z,929.14
2017-01-29T04:12:28.528Z,929.1
2017-01-29T04:12:48.944Z,929.08
2017-01-29T04:13:09.374Z,929.07
2017-01-29T04:13:29.795Z,929.08
2017-01-29T04:13:50.194Z,929.06
2017-01-29T04:14:10.581Z,929.08
2017-01-29T04:14:30.999Z,929.08
2017-01-29T04:14:50.764Z,929.11
2017-01-29T04:15:10.530Z,929.1
2017-01-29T04:15:30.910Z,929.11